createdAt,value
2023-05-11T00:00:00.750Z,1011.19
2023-05-11T00:01:00.745Z,1011.18
2023-05-11T00:02:00.769Z,1011.18
2023-05-11T00:03:00.861Z,1011.15
2023-05-11T00:04:00.937Z,1011.13
2023-05-11T00:05:00.764Z,1011.17
2023-05-11T00:06:00.701Z,1011.14
2023-05-11T00:07:00.698Z,1011.19
2023-05-11T00:08:00.694Z,1011.21
2023-05-11T00:09:00.684Z,1011.23
2023-05-11T00:10:00.649Z,1011.20
2023-05-11T00:11:00.721Z,1011.21
2023-05-11T00:12:00.625Z,1011.24
2023-05-11T00:13:00.631Z,1011.27
2023-05-11T00:14:00.583Z,1011.18
2023-05-11T00:15:00.618Z,1011.18
2023-05-11T00:16:00.676Z,1011.20
2023-05-11T00:17:00.584Z,1011.16
2023-05-11T00:18:00.572Z,1011.17
2023-05-11T00:19:00.746Z,1011.21
2023-05-11T00:20:00.563Z,1011.21
2023-05-11T00:21:00.518Z,1011.23
2023-05-11T00:22:00.474Z,1011.18
2023-05-11T00:23:00.492Z,1011.18
2023-05-11T00:24:08.441Z,1011.18
2023-05-11T00:25:00.519Z,1011.16
2023-05-11T00:26:00.440Z,1011.24
2023-05-11T00:27:00.421Z,1011.23
2023-05-11T00:28:00.411Z,1011.26
2023-05-11T00:29:00.425Z,1011.25
2023-05-11T00:30:00.455Z,1011.23
2023-05-11T00:31:00.446Z,1011.25
2023-05-11T00:32:00.356Z,1011.24
2023-05-11T00:33:00.443Z,1011.27
2023-05-11T00:34:00.336Z,1011.22
2023-05-11T00:35:00.343Z,1011.16
2023-05-11T00:36:00.340Z,1011.29
2023-05-11T00:37:00.345Z,1011.24
2023-05-11T00:38:00.246Z,1011.20
2023-05-11T00:39:00.284Z,1011.18
2023-05-11T00:40:00.222Z,1011.18
2023-05-11T00:41:00.219Z,1011.16
2023-05-11T00:42:00.203Z,1011.16
2023-05-11T00:43:00.211Z,1011.19
2023-05-11T00:44:00.194Z,1011.22
2023-05-11T00:45:00.241Z,1011.19
2023-05-11T00:46:00.191Z,1011.14
2023-05-11T00:47:00.245Z,1011.14
2023-05-11T00:48:00.269Z,1011.13
2023-05-11T00:49:00.142Z,1011.11
2023-05-11T00:50:00.128Z,1011.11
2023-05-11T00:51:00.105Z,1011.13
2023-05-11T00:52:00.126Z,1011.08
2023-05-11T00:53:00.132Z,1011.12
2023-05-11T00:54:00.054Z,1011.13
2023-05-11T00:55:00.066Z,1011.17
2023-05-11T00:56:00.015Z,1011.10
2023-05-11T00:57:00.015Z,1011.17
2023-05-11T00:58:00.048Z,1011.15
2023-05-11T00:59:00.024Z,1011.23
2023-05-11T00:59:59.986Z,1011.18
2023-05-11T01:01:00.108Z,1011.17
2023-05-11T01:01:59.993Z,1011.11
2023-05-11T01:02:59.999Z,1011.15
2023-05-11T01:03:59.944Z,1011.13
2023-05-11T01:04:59.939Z,1011.11
2023-05-11T01:05:59.916Z,1011.09
2023-05-11T01:06:59.885Z,1011.19
2023-05-11T01:07:59.866Z,1011.14
2023-05-11T01:08:59.901Z,1011.15
2023-05-11T01:09:59.871Z,1011.15
2023-05-11T01:10:59.901Z,1011.12
2023-05-11T01:11:59.837Z,1011.16
2023-05-11T01:12:59.832Z,1011.21
2023-05-11T01:13:59.820Z,1011.21
2023-05-11T01:14:59.847Z,1011.22
2023-05-11T01:15:59.759Z,1011.23
2023-05-11T01:16:59.825Z,1011.21
2023-05-11T01:17:59.804Z,1011.24
2023-05-11T01:18:59.831Z,1011.19
2023-05-11T01:19:59.714Z,1011.21
2023-05-11T01:20:59.743Z,1011.23
2023-05-11T01:21:59.711Z,1011.19
2023-05-11T01:22:59.686Z,1011.27
2023-05-11T01:23:59.697Z,1011.22
2023-05-11T01:24:59.686Z,1011.29
2023-05-11T01:25:59.637Z,1011.28
2023-05-11T01:26:59.684Z,1011.28
2023-05-11T01:27:59.601Z,1011.23
2023-05-11T01:28:59.654Z,1011.24
2023-05-11T01:29:59.614Z,1011.26
2023-05-11T01:30:59.575Z,1011.22
2023-05-11T01:31:59.591Z,1011.19
2023-05-11T01:32:59.621Z,1011.23
2023-05-11T01:33:59.594Z,1011.21
2023-05-11T01:34:59.560Z,1011.20
2023-05-11T01:35:59.489Z,1011.18
2023-05-11T01:36:59.556Z,1011.17
2023-05-11T01:37:59.511Z,1011.15
2023-05-11T01:38:59.474Z,1011.13
2023-05-11T01:39:59.492Z,1011.18
2023-05-11T01:40:59.473Z,1011.16
2023-05-11T01:41:59.442Z,1011.13
2023-05-11T01:42:59.450Z,1011.16
2023-05-11T01:43:59.447Z,1011.16
2023-05-11T01:44:59.385Z,1011.16
2023-05-11T01:45:59.371Z,1011.14
2023-05-11T01:46:59.395Z,1011.10
2023-05-11T01:47:59.387Z,1011.08
2023-05-11T01:48:59.355Z,1011.12
2023-05-11T01:49:59.332Z,1011.09
2023-05-11T01:50:59.340Z,1011.11
2023-05-11T01:51:59.302Z,1011.11
2023-05-11T01:52:59.284Z,1011.15
2023-05-11T01:53:59.334Z,1011.06
2023-05-11T01:54:59.252Z,1011.14
2023-05-11T01:55:59.280Z,1011.12
2023-05-11T01:56:59.240Z,1011.10
2023-05-11T01:57:59.213Z,1011.16
2023-05-11T01:58:59.265Z,1011.14
2023-05-11T01:59:59.202Z,1011.09
2023-05-11T02:00:59.201Z,1011.13
2023-05-11T02:01:59.195Z,1011.10
2023-05-11T02:02:59.237Z,1011.12
2023-05-11T02:03:59.122Z,1011.07
2023-05-11T02:04:59.218Z,1011.10
2023-05-11T02:05:59.114Z,1011.07
2023-05-11T02:06:59.127Z,1011.11
2023-05-11T02:07:59.077Z,1011.11
2023-05-11T02:08:59.073Z,1011.11
2023-05-11T02:09:59.074Z,1011.15
2023-05-11T02:10:59.071Z,1011.19
2023-05-11T02:11:59.027Z,1011.12
2023-05-11T02:12:59.060Z,1011.17
2023-05-11T02:13:59.034Z,1011.15
2023-05-11T02:14:59.031Z,1011.19
2023-05-11T02:15:59.035Z,1011.18
2023-05-11T02:16:59.001Z,1011.19
2023-05-11T02:17:59.038Z,1011.25
2023-05-11T02:18:59.010Z,1011.26
2023-05-11T02:19:58.925Z,1011.28
2023-05-11T02:20:58.931Z,1011.27
2023-05-11T02:21:58.916Z,1011.27
2023-05-11T02:22:58.918Z,1011.37
2023-05-11T02:23:58.907Z,1011.40
2023-05-11T02:24:58.944Z,1011.44
2023-05-11T02:25:58.849Z,1011.40
2023-05-11T02:26:58.905Z,1011.36
2023-05-11T02:27:58.825Z,1011.38
2023-05-11T02:28:58.803Z,1011.43
2023-05-11T02:29:58.811Z,1011.38
2023-05-11T02:30:58.844Z,1011.40
2023-05-11T02:31:58.774Z,1011.41
2023-05-11T02:32:58.779Z,1011.39
2023-05-11T02:33:58.795Z,1011.34
2023-05-11T02:34:58.756Z,1011.39
2023-05-11T02:35:58.763Z,1011.35
2023-05-11T02:36:58.699Z,1011.37
2023-05-11T02:37:58.717Z,1011.40
2023-05-11T02:38:58.697Z,1011.37
2023-05-11T02:39:58.708Z,1011.40
2023-05-11T02:40:58.701Z,1011.40
2023-05-11T02:41:58.667Z,1011.40
2023-05-11T02:42:58.654Z,1011.42
2023-05-11T02:43:58.647Z,1011.48
2023-05-11T02:44:58.597Z,1011.45
2023-05-11T02:45:58.626Z,1011.46
2023-05-11T02:46:58.641Z,1011.42
2023-05-11T02:47:58.662Z,1011.43
2023-05-11T02:48:58.566Z,1011.46
2023-05-11T02:49:58.594Z,1011.46
2023-05-11T02:50:58.539Z,1011.44
2023-05-11T02:51:58.549Z,1011.47
2023-05-11T02:52:58.511Z,1011.50
2023-05-11T02:53:58.534Z,1011.47
2023-05-11T02:54:58.477Z,1011.51
2023-05-11T02:55:58.462Z,1011.50
2023-05-11T02:56:58.494Z,1011.49
2023-05-11T02:57:58.500Z,1011.48
2023-05-11T02:58:58.412Z,1011.51
2023-05-11T02:59:58.437Z,1011.45
2023-05-11T03:00:58.455Z,1011.42
2023-05-11T03:01:58.548Z,1011.47
2023-05-11T03:02:58.397Z,1011.44
2023-05-11T03:03:58.423Z,1011.46
2023-05-11T03:04:58.390Z,1011.45
2023-05-11T03:05:58.332Z,1011.42
2023-05-11T03:06:58.312Z,1011.42
2023-05-11T03:07:58.353Z,1011.43
2023-05-11T03:08:58.280Z,1011.46
2023-05-11T03:09:58.358Z,1011.45
2023-05-11T03:10:58.292Z,1011.40
2023-05-11T03:11:58.286Z,1011.44
2023-05-11T03:12:58.251Z,1011.39
2023-05-11T03:13:58.286Z,1011.41
2023-05-11T03:14:58.206Z,1011.43
2023-05-11T03:15:58.229Z,1011.43
2023-05-11T03:16:58.256Z,1011.37
2023-05-11T03:17:58.267Z,1011.41
2023-05-11T03:18:58.199Z,1011.36
2023-05-11T03:19:58.179Z,1011.35
2023-05-11T03:20:58.157Z,1011.30
2023-05-11T03:21:58.126Z,1011.34
2023-05-11T03:22:58.122Z,1011.38
2023-05-11T03:23:58.103Z,1011.32
2023-05-11T03:24:58.127Z,1011.34
2023-05-11T03:25:58.069Z,1011.32
2023-05-11T03:26:58.071Z,1011.38
2023-05-11T03:27:58.092Z,1011.30
2023-05-11T03:28:58.016Z,1011.34
2023-05-11T03:29:58.068Z,1011.31
2023-05-11T03:30:58.015Z,1011.31
2023-05-11T03:31:58.035Z,1011.29
2023-05-11T03:32:58.054Z,1011.37
2023-05-11T03:33:58.016Z,1011.37
2023-05-11T03:34:57.968Z,1011.38
2023-05-11T03:35:58.003Z,1011.38
2023-05-11T03:36:57.943Z,1011.38
2023-05-11T03:37:57.970Z,1011.41
2023-05-11T03:38:57.883Z,1011.35
2023-05-11T03:39:57.899Z,1011.43
2023-05-11T03:40:57.912Z,1011.38
2023-05-11T03:41:57.913Z,1011.39
2023-05-11T03:42:57.839Z,1011.36
2023-05-11T03:43:57.837Z,1011.34
2023-05-11T03:44:57.836Z,1011.40
2023-05-11T03:45:57.890Z,1011.40
2023-05-11T03:46:57.825Z,1011.37
2023-05-11T03:47:57.887Z,1011.37
2023-05-11T03:48:57.767Z,1011.40
2023-05-11T03:49:57.789Z,1011.33
2023-05-11T03:50:57.754Z,1011.35
2023-05-11T03:51:57.764Z,1011.36
2023-05-11T03:52:57.704Z,1011.40
2023-05-11T03:53:57.750Z,1011.34
2023-05-11T03:54:57.687Z,1011.29
2023-05-11T03:55:57.698Z,1011.36
2023-05-11T03:56:57.664Z,1011.33
2023-05-11T03:57:57.680Z,1011.33
2023-05-11T03:58:57.632Z,1011.34
2023-05-11T03:59:57.651Z,1011.32
2023-05-11T04:00:57.621Z,1011.32
2023-05-11T04:01:57.604Z,1011.34
2023-05-11T04:02:57.708Z,1011.33
2023-05-11T04:03:57.869Z,1011.33
2023-05-11T04:04:57.592Z,1011.29
2023-05-11T04:05:57.548Z,1011.25
2023-05-11T04:06:57.554Z,1011.30
2023-05-11T04:07:57.545Z,1011.37
2023-05-11T04:08:57.532Z,1011.33
2023-05-11T04:09:57.512Z,1011.32
2023-05-11T04:10:57.495Z,1011.36
2023-05-11T04:11:57.506Z,1011.35
2023-05-11T04:12:57.493Z,1011.32
2023-05-11T04:13:57.482Z,1011.34
2023-05-11T04:14:57.434Z,1011.37
2023-05-11T04:15:57.489Z,1011.41
2023-05-11T04:16:57.411Z,1011.37
2023-05-11T04:17:57.464Z,1011.36
2023-05-11T04:18:57.409Z,1011.38
2023-05-11T04:19:57.388Z,1011.33
2023-05-11T04:20:57.334Z,1011.34
2023-05-11T04:21:57.373Z,1011.36
2023-05-11T04:22:57.347Z,1011.36
2023-05-11T04:23:57.322Z,1011.38
2023-05-11T04:24:57.337Z,1011.38
2023-05-11T04:25:57.350Z,1011.40
2023-05-11T04:26:57.308Z,1011.35
2023-05-11T04:27:57.252Z,1011.31
2023-05-11T04:28:57.243Z,1011.32
2023-05-11T04:29:57.284Z,1011.36
2023-05-11T04:30:57.257Z,1011.42
2023-05-11T04:31:57.380Z,1011.38
2023-05-11T04:32:57.270Z,1011.43
2023-05-11T04:33:57.188Z,1011.38
2023-05-11T04:34:57.154Z,1011.46
2023-05-11T04:35:57.194Z,1011.45
2023-05-11T04:36:57.161Z,1011.47
2023-05-11T04:37:57.119Z,1011.50
2023-05-11T04:38:57.104Z,1011.48
2023-05-11T04:39:57.151Z,1011.46
2023-05-11T04:40:57.115Z,1011.46
2023-05-11T04:41:57.084Z,1011.52
2023-05-11T04:42:57.087Z,1011.54
2023-05-11T04:43:57.082Z,1011.47
2023-05-11T04:44:57.054Z,1011.48
2023-05-11T04:45:57.015Z,1011.54
2023-05-11T04:46:57.076Z,1011.49
2023-05-11T04:47:57.090Z,1011.55
2023-05-11T04:48:56.978Z,1011.48
2023-05-11T04:49:56.988Z,1011.52
2023-05-11T04:50:56.960Z,1011.55
2023-05-11T04:51:56.969Z,1011.52
2023-05-11T04:52:56.962Z,1011.55
2023-05-11T04:53:56.949Z,1011.54
2023-05-11T04:54:56.923Z,1011.57
2023-05-11T04:55:56.884Z,1011.58
2023-05-11T04:56:56.898Z,1011.55
2023-05-11T04:57:56.877Z,1011.65
2023-05-11T04:58:56.874Z,1011.56
2023-05-11T04:59:57.030Z,1011.56
2023-05-11T05:00:56.867Z,1011.58
2023-05-11T05:01:56.853Z,1011.59
2023-05-11T05:02:56.826Z,1011.57
2023-05-11T05:03:56.816Z,1011.59
2023-05-11T05:04:56.824Z,1011.59
2023-05-11T05:05:56.807Z,1011.67
2023-05-11T05:06:56.797Z,1011.67
2023-05-11T05:07:56.758Z,1011.63
2023-05-11T05:08:56.719Z,1011.66
2023-05-11T05:09:56.757Z,1011.70
2023-05-11T05:10:56.729Z,1011.70
2023-05-11T05:11:56.693Z,1011.67
2023-05-11T05:12:56.655Z,1011.75
2023-05-11T05:13:56.657Z,1011.74
2023-05-11T05:14:56.661Z,1011.73
2023-05-11T05:15:56.675Z,1011.77
2023-05-11T05:16:56.629Z,1011.72
2023-05-11T05:17:56.636Z,1011.73
2023-05-11T05:18:56.754Z,1011.71
2023-05-11T05:19:56.659Z,1011.77
2023-05-11T05:20:56.548Z,1011.76
2023-05-11T05:21:56.559Z,1011.78
2023-05-11T05:22:56.541Z,1011.79
2023-05-11T05:23:56.555Z,1011.76
2023-05-11T05:24:56.628Z,1011.77
2023-05-11T05:25:56.512Z,1011.80
2023-05-11T05:26:56.502Z,1011.83
2023-05-11T05:27:56.465Z,1011.77
2023-05-11T05:28:56.459Z,1011.73
2023-05-11T05:29:56.457Z,1011.85
2023-05-11T05:30:56.513Z,1011.81
2023-05-11T05:31:56.448Z,1011.85
2023-05-11T05:32:56.516Z,1011.84
2023-05-11T05:33:56.397Z,1011.81
2023-05-11T05:34:56.399Z,1011.89
2023-05-11T05:35:56.398Z,1011.90
2023-05-11T05:36:56.407Z,1011.93
2023-05-11T05:37:56.341Z,1011.91
2023-05-11T05:38:56.339Z,1011.96
2023-05-11T05:39:56.359Z,1011.90
2023-05-11T05:40:56.340Z,1011.91
2023-05-11T05:41:56.287Z,1011.90
2023-05-11T05:42:56.271Z,1011.97
2023-05-11T05:43:56.269Z,1011.94
2023-05-11T05:44:56.272Z,1011.95
2023-05-11T05:45:56.246Z,1011.97
2023-05-11T05:46:56.265Z,1012.01
2023-05-11T05:47:56.289Z,1011.98
2023-05-11T05:48:56.210Z,1011.97
2023-05-11T05:49:56.222Z,1011.99
2023-05-11T05:50:56.181Z,1011.99
2023-05-11T05:51:56.251Z,1012.04
2023-05-11T05:52:56.128Z,1012.02
2023-05-11T05:53:56.153Z,1012.08
2023-05-11T05:54:56.109Z,1012.06
2023-05-11T05:55:56.199Z,1012.05
2023-05-11T05:56:56.110Z,1012.07
2023-05-11T05:57:56.136Z,1012.02
2023-05-11T05:58:56.081Z,1012.07
2023-05-11T05:59:56.075Z,1011.99
2023-05-11T06:00:56.096Z,1012.06
2023-05-11T06:01:56.035Z,1012.10
2023-05-11T06:02:56.049Z,1012.05
2023-05-11T06:03:56.208Z,1012.05
2023-05-11T06:04:56.067Z,1012.05
2023-05-11T06:05:56.032Z,1012.06
2023-05-11T06:06:56.052Z,1012.03
2023-05-11T06:08:09.126Z,1012.04
2023-05-11T06:08:57.075Z,1012.03
2023-05-11T06:09:55.921Z,1012.13
2023-05-11T06:10:55.914Z,1012.09
2023-05-11T06:11:55.904Z,1012.11
2023-05-11T06:12:55.966Z,1012.12
2023-05-11T06:13:55.964Z,1012.07
2023-05-11T06:14:56.014Z,1012.11
2023-05-11T06:15:55.902Z,1012.09
2023-05-11T06:16:55.851Z,1012.12
2023-05-11T06:17:56.893Z,1012.07
2023-05-11T06:18:55.877Z,1012.10
2023-05-11T06:19:55.782Z,1012.07
2023-05-11T06:20:55.780Z,1012.07
2023-05-11T06:21:55.774Z,1012.07
2023-05-11T06:22:55.792Z,1012.08
2023-05-11T06:23:55.790Z,1012.10
2023-05-11T06:24:55.710Z,1012.07
2023-05-11T06:25:55.741Z,1012.13
2023-05-11T06:26:55.749Z,1012.06
2023-05-11T06:27:55.719Z,1012.09
2023-05-11T06:28:55.768Z,1012.10
2023-05-11T06:29:55.726Z,1012.10
2023-05-11T06:30:55.702Z,1012.05
2023-05-11T06:31:55.717Z,1012.09
2023-05-11T06:32:55.659Z,1012.10
2023-05-11T06:33:55.665Z,1012.12
2023-05-11T06:34:55.674Z,1012.11
2023-05-11T06:35:55.641Z,1012.12
2023-05-11T06:36:55.619Z,1012.11
2023-05-11T06:37:55.579Z,1012.10
2023-05-11T06:38:55.535Z,1012.10
2023-05-11T06:39:55.570Z,1012.12
2023-05-11T06:40:55.613Z,1012.10
2023-05-11T06:41:57.056Z,1012.07
2023-05-11T06:42:55.541Z,1012.08
2023-05-11T06:43:55.491Z,1012.08
2023-05-11T06:44:55.531Z,1012.04
2023-05-11T06:45:55.528Z,1012.02
2023-05-11T06:46:55.456Z,1012.02
2023-05-11T06:47:55.474Z,1012.03
2023-05-11T06:48:55.429Z,1012.05
2023-05-11T06:49:55.388Z,1012.05
2023-05-11T06:50:55.491Z,1012.07
2023-05-11T06:51:55.380Z,1012.09
2023-05-11T06:52:55.353Z,1012.08
2023-05-11T06:53:55.366Z,1012.05
2023-05-11T06:54:55.397Z,1012.06
2023-05-11T06:55:55.326Z,1012.06
2023-05-11T06:56:55.350Z,1012.06
2023-05-11T06:57:55.306Z,1012.11
2023-05-11T06:58:55.271Z,1012.09
2023-05-11T06:59:55.284Z,1012.10
2023-05-11T07:00:55.312Z,1012.08
2023-05-11T07:01:55.254Z,1012.12
2023-05-11T07:02:55.315Z,1012.11
2023-05-11T07:03:55.227Z,1012.11
2023-05-11T07:04:55.297Z,1012.13
2023-05-11T07:05:55.239Z,1012.18
2023-05-11T07:06:55.177Z,1012.12
2023-05-11T07:07:55.175Z,1012.15
2023-05-11T07:08:55.169Z,1012.17
2023-05-11T07:09:55.142Z,1012.13
2023-05-11T07:10:55.153Z,1012.17
2023-05-11T07:11:55.137Z,1012.18
2023-05-11T07:12:55.126Z,1012.13
2023-05-11T07:13:55.096Z,1012.18
2023-05-11T07:14:55.066Z,1012.18
2023-05-11T07:15:57.367Z,1012.13
2023-05-11T07:16:55.102Z,1012.18
2023-05-11T07:17:55.163Z,1012.16
2023-05-11T07:18:55.075Z,1012.16
2023-05-11T07:19:55.025Z,1012.13
2023-05-11T07:20:55.029Z,1012.12
2023-05-11T07:21:54.959Z,1012.17
2023-05-11T07:22:54.962Z,1012.15
2023-05-11T07:23:54.963Z,1012.18
2023-05-11T07:24:54.994Z,1012.12
2023-05-11T07:25:54.929Z,1012.26
2023-05-11T07:26:54.947Z,1012.22
2023-05-11T07:27:54.919Z,1012.13
2023-05-11T07:28:54.929Z,1012.14
2023-05-11T07:29:54.885Z,1012.14
2023-05-11T07:30:54.879Z,1012.10
2023-05-11T07:31:54.924Z,1012.17
2023-05-11T07:32:54.872Z,1012.09
2023-05-11T07:33:54.826Z,1012.15
2023-05-11T07:34:54.853Z,1012.10
2023-05-11T07:35:54.844Z,1012.06
2023-05-11T07:36:54.782Z,1012.11
2023-05-11T07:37:54.763Z,1012.05
2023-05-11T07:38:54.792Z,1012.10
2023-05-11T07:39:54.752Z,1012.10
2023-05-11T07:40:54.803Z,1012.14
2023-05-11T07:41:54.750Z,1012.13
2023-05-11T07:42:54.704Z,1012.10
2023-05-11T07:43:54.714Z,1012.17
2023-05-11T07:44:54.671Z,1012.17
2023-05-11T07:45:54.837Z,1012.16
2023-05-11T07:46:54.654Z,1012.11
2023-05-11T07:47:54.702Z,1012.12
2023-05-11T07:49:03.506Z,1012.12
2023-05-11T07:49:55.608Z,1012.14
2023-05-11T07:50:54.623Z,1012.12
2023-05-11T07:51:54.632Z,1012.13
2023-05-11T07:52:54.611Z,1012.13
2023-05-11T07:53:54.584Z,1012.15
2023-05-11T07:54:54.574Z,1012.10
2023-05-11T07:55:54.679Z,1012.06
2023-05-11T07:56:54.519Z,1012.09
2023-05-11T07:57:54.527Z,1012.11
2023-05-11T07:58:54.490Z,1012.10
2023-05-11T07:59:54.517Z,1012.08
2023-05-11T08:00:54.470Z,1012.12
2023-05-11T08:01:54.520Z,1012.13
2023-05-11T08:02:54.687Z,1012.08
2023-05-11T08:03:54.415Z,1012.08
2023-05-11T08:04:54.430Z,1012.12
2023-05-11T08:05:54.501Z,1012.11
2023-05-11T08:06:54.455Z,1012.12
2023-05-11T08:07:54.369Z,1012.15
2023-05-11T08:08:54.417Z,1012.06
2023-05-11T08:09:54.369Z,1012.13
2023-05-11T08:10:54.377Z,1012.14
2023-05-11T08:11:54.346Z,1012.16
2023-05-11T08:12:54.345Z,1012.13
2023-05-11T08:13:54.295Z,1012.15
2023-05-11T08:14:54.332Z,1012.16
2023-05-11T08:15:54.349Z,1012.16
2023-05-11T08:16:54.258Z,1012.08
2023-05-11T08:17:54.366Z,1012.09
2023-05-11T08:18:54.286Z,1012.11
2023-05-11T08:19:54.253Z,1012.13
2023-05-11T08:20:54.226Z,1012.05
2023-05-11T08:21:54.188Z,1012.15
2023-05-11T08:22:54.214Z,1012.11
2023-05-11T08:23:54.183Z,1012.12
2023-05-11T08:24:54.176Z,1012.14
2023-05-11T08:25:54.240Z,1012.13
2023-05-11T08:26:54.130Z,1012.14
2023-05-11T08:27:54.138Z,1012.09
2023-05-11T08:28:54.110Z,1012.10
2023-05-11T08:29:54.076Z,1012.12
2023-05-11T08:30:54.088Z,1012.15
2023-05-11T08:31:54.114Z,1012.09
2023-05-11T08:32:58.460Z,1012.14
2023-05-11T08:33:55.145Z,1012.18
2023-05-11T08:34:54.148Z,1012.18
2023-05-11T08:35:54.013Z,1012.12
2023-05-11T08:36:54.024Z,1012.16
2023-05-11T08:37:54.074Z,1012.15
2023-05-11T08:38:57.273Z,1012.09
2023-05-11T08:39:55.005Z,1012.14
2023-05-11T08:40:53.979Z,1012.17
2023-05-11T08:41:53.933Z,1012.07
2023-05-11T08:42:53.950Z,1012.15
2023-05-11T08:43:53.892Z,1012.14
2023-05-11T08:44:53.977Z,1012.15
2023-05-11T08:45:53.946Z,1012.15
2023-05-11T08:47:08.556Z,1012.21
2023-05-11T08:47:54.991Z,1012.12
2023-05-11T08:48:53.978Z,1012.13
2023-05-11T08:49:53.890Z,1012.10
2023-05-11T08:50:53.872Z,1012.10
2023-05-11T08:51:53.990Z,1012.10
2023-05-11T08:52:57.832Z,1012.11
2023-05-11T08:53:53.788Z,1012.11
2023-05-11T08:54:53.786Z,1012.14
2023-05-11T08:55:53.880Z,1012.09
2023-05-11T08:56:53.735Z,1012.12
2023-05-11T08:57:53.726Z,1012.14
2023-05-11T08:58:55.945Z,1012.10
2023-05-11T08:59:53.715Z,1012.15
2023-05-11T09:00:53.741Z,1012.16
2023-05-11T09:01:53.695Z,1012.18
2023-05-11T09:02:53.708Z,1012.18
2023-05-11T09:03:53.788Z,1012.17
2023-05-11T09:04:54.579Z,1012.18
2023-05-11T09:05:53.809Z,1012.20
2023-05-11T09:06:53.622Z,1012.15
2023-05-11T09:07:53.578Z,1012.18
2023-05-11T09:08:53.588Z,1012.17
2023-05-11T09:09:53.595Z,1012.21
2023-05-11T09:10:53.557Z,1012.15
2023-05-11T09:11:53.726Z,1012.17
2023-05-11T09:12:53.569Z,1012.19
2023-05-11T09:13:53.528Z,1012.13
2023-05-11T09:14:53.530Z,1012.19
2023-05-11T09:15:53.614Z,1012.11
2023-05-11T09:16:53.526Z,1012.15
2023-05-11T09:17:53.535Z,1012.14
2023-05-11T09:18:53.537Z,1012.18
2023-05-11T09:19:53.520Z,1012.12
2023-05-11T09:20:53.437Z,1012.16
2023-05-11T09:21:53.431Z,1012.10
2023-05-11T09:22:53.394Z,1012.18
2023-05-11T09:23:53.491Z,1012.15
2023-05-11T09:24:53.405Z,1012.12
2023-05-11T09:25:53.386Z,1012.13
2023-05-11T09:26:53.368Z,1012.13
2023-05-11T09:27:53.322Z,1012.22
2023-05-11T09:29:02.539Z,1012.16
2023-05-11T09:29:54.360Z,1012.20
2023-05-11T09:30:53.346Z,1012.18
2023-05-11T09:31:53.365Z,1012.10
2023-05-11T09:32:53.390Z,1012.06
2023-05-11T09:33:53.237Z,1012.09
2023-05-11T09:34:53.270Z,1012.09
2023-05-11T09:35:53.289Z,1012.16
2023-05-11T09:36:53.259Z,1012.12
2023-05-11T09:37:53.204Z,1012.09
2023-05-11T09:38:57.349Z,1012.16
2023-05-11T09:40:25.021Z,1012.14
2023-05-11T09:40:54.224Z,1012.13
2023-05-11T09:41:53.154Z,1012.10
2023-05-11T09:42:53.160Z,1012.12
2023-05-11T09:43:53.121Z,1012.13
2023-05-11T09:44:53.137Z,1012.15
2023-05-11T09:45:53.119Z,1012.13
2023-05-11T09:46:53.151Z,1012.14
2023-05-11T09:47:53.135Z,1012.17
2023-05-11T09:48:53.051Z,1012.15
2023-05-11T09:49:53.066Z,1012.17
2023-05-11T09:50:53.021Z,1012.19
2023-05-11T09:51:53.046Z,1012.17
2023-05-11T09:52:53.072Z,1012.15
2023-05-11T09:53:53.003Z,1012.12
2023-05-11T09:54:53.012Z,1012.10
2023-05-11T09:55:52.976Z,1012.11
2023-05-11T09:56:52.979Z,1012.09
2023-05-11T09:57:52.919Z,1012.07
2023-05-11T09:58:52.934Z,1012.14
2023-05-11T09:59:52.925Z,1012.16
2023-05-11T10:00:52.944Z,1012.13
2023-05-11T10:01:52.993Z,1012.16
2023-05-11T10:02:52.991Z,1012.19
2023-05-11T10:03:55.004Z,1012.16
2023-05-11T10:04:53.880Z,1012.16
2023-05-11T10:05:52.812Z,1012.13
2023-05-11T10:06:52.978Z,1012.16
2023-05-11T10:07:52.855Z,1012.19
2023-05-11T10:08:52.783Z,1012.14
2023-05-11T10:09:52.779Z,1012.15
2023-05-11T10:10:52.774Z,1012.12
2023-05-11T10:11:52.736Z,1012.16
2023-05-11T10:12:52.742Z,1012.18
2023-05-11T10:13:52.717Z,1012.12
2023-05-11T10:14:52.740Z,1012.10
2023-05-11T10:15:52.725Z,1012.15
2023-05-11T10:16:52.713Z,1012.13
2023-05-11T10:17:52.731Z,1012.07
2023-05-11T10:18:52.729Z,1012.06
2023-05-11T10:19:52.692Z,1012.09
2023-05-11T10:20:52.638Z,1012.06
2023-05-11T10:21:52.680Z,1012.03
2023-05-11T10:22:52.658Z,1012.01
2023-05-11T10:23:52.608Z,1012.01
2023-05-11T10:24:52.582Z,1012.05
2023-05-11T10:25:52.576Z,1012.01
2023-05-11T10:26:52.592Z,1012.03
2023-05-11T10:27:52.565Z,1012.02
2023-05-11T10:28:52.525Z,1012.02
2023-05-11T10:29:52.504Z,1012.07
2023-05-11T10:30:52.531Z,1012.03
2023-05-11T10:31:52.561Z,1012.09
2023-05-11T10:32:52.547Z,1012.02
2023-05-11T10:33:52.506Z,1012.03
2023-05-11T10:34:52.465Z,1012.03
2023-05-11T10:35:54.206Z,1012.02
2023-05-11T10:36:52.453Z,1012.00
2023-05-11T10:37:52.395Z,1012.01
2023-05-11T10:38:52.402Z,1011.97
2023-05-11T10:39:52.398Z,1011.97
2023-05-11T10:40:52.391Z,1012.01
2023-05-11T10:41:52.358Z,1011.99
2023-05-11T10:42:52.380Z,1012.03
2023-05-11T10:43:52.326Z,1011.99
2023-05-11T10:44:52.364Z,1012.03
2023-05-11T10:45:52.355Z,1011.97
2023-05-11T10:46:52.332Z,1012.08
2023-05-11T10:47:52.346Z,1012.06
2023-05-11T10:48:52.275Z,1012.08
2023-05-11T10:49:52.259Z,1012.07
2023-05-11T10:50:52.224Z,1012.10
2023-05-11T10:51:52.243Z,1012.12
2023-05-11T10:52:52.195Z,1012.12
2023-05-11T10:53:52.209Z,1012.08
2023-05-11T10:54:52.167Z,1012.13
2023-05-11T10:55:52.190Z,1012.06
2023-05-11T10:56:52.189Z,1012.09
2023-05-11T10:57:52.173Z,1012.02
2023-05-11T10:58:52.172Z,1012.05
2023-05-11T10:59:52.167Z,1012.02
2023-05-11T11:00:52.200Z,1012.05
2023-05-11T11:01:52.248Z,1012.03
2023-05-11T11:02:52.096Z,1012.02
2023-05-11T11:03:52.086Z,1012.02
2023-05-11T11:04:52.080Z,1012.04
2023-05-11T11:05:52.044Z,1012.00
2023-05-11T11:06:52.013Z,1011.99
2023-05-11T11:07:52.077Z,1012.08
2023-05-11T11:08:52.015Z,1011.98
2023-05-11T11:09:52.020Z,1011.99
2023-05-11T11:10:51.964Z,1012.03
2023-05-11T11:11:52.001Z,1012.00
2023-05-11T11:12:51.936Z,1012.00
2023-05-11T11:13:51.953Z,1012.02
2023-05-11T11:14:51.931Z,1012.05
2023-05-11T11:15:51.976Z,1012.03
2023-05-11T11:16:51.986Z,1012.02
2023-05-11T11:17:51.898Z,1011.97
2023-05-11T11:18:51.895Z,1012.03
2023-05-11T11:19:51.860Z,1012.01
2023-05-11T11:20:51.895Z,1011.97
2023-05-11T11:21:51.848Z,1012.04
2023-05-11T11:22:51.821Z,1011.97
2023-05-11T11:23:51.849Z,1012.02
2023-05-11T11:24:51.764Z,1011.99
2023-05-11T11:25:51.808Z,1011.99
2023-05-11T11:26:51.818Z,1011.97
2023-05-11T11:27:51.777Z,1012.01
2023-05-11T11:28:51.744Z,1011.97
2023-05-11T11:29:51.775Z,1011.98
2023-05-11T11:30:51.786Z,1011.96
2023-05-11T11:31:51.701Z,1011.95
2023-05-11T11:32:51.724Z,1011.95
2023-05-11T11:33:51.676Z,1011.95
2023-05-11T11:34:51.679Z,1011.91
2023-05-11T11:35:51.664Z,1011.89
2023-05-11T11:36:51.716Z,1011.88
2023-05-11T11:37:51.627Z,1011.87
2023-05-11T11:38:51.616Z,1011.86
2023-05-11T11:39:51.617Z,1011.87
2023-05-11T11:40:52.492Z,1011.87
2023-05-11T11:41:51.600Z,1011.84
2023-05-11T11:42:51.550Z,1011.83
2023-05-11T11:43:51.568Z,1011.84
2023-05-11T11:44:51.525Z,1011.88
2023-05-11T11:45:51.585Z,1011.86
2023-05-11T11:46:51.590Z,1011.75
2023-05-11T11:47:51.531Z,1011.78
2023-05-11T11:48:54.346Z,1011.75
2023-05-11T11:49:51.463Z,1011.88
2023-05-11T11:50:51.456Z,1011.79
2023-05-11T11:51:51.482Z,1011.69
2023-05-11T11:52:51.428Z,1011.77
2023-05-11T11:53:51.439Z,1011.78
2023-05-11T11:54:51.459Z,1011.71
2023-05-11T11:55:51.384Z,1011.70
2023-05-11T11:56:51.372Z,1011.72
2023-05-11T11:57:51.474Z,1011.73
2023-05-11T11:58:51.358Z,1011.74
2023-05-11T11:59:51.386Z,1011.69
2023-05-11T12:00:51.308Z,1011.76
2023-05-11T12:01:51.325Z,1011.69
2023-05-11T12:02:51.346Z,1011.70
2023-05-11T12:03:51.424Z,1011.69
2023-05-11T12:04:51.351Z,1011.73